SBOSBO MCO / KMCO
Speedbird OnlineSpeedbird Online MCO / KMCO

Orlando International Airport
16:02 32.3°C

Location Orlando, United States
Latitude: 28.429399490356445
Longitude: -81.30899810791016
Local Time 16:02 on 20 Apr 2024
UTC -4 hours (America/New_York)
Currency £1 equals USD 1.24
METAR KMCO 201853Z 21006KT 10SM FEW060 31/16 A3003 RMK AO2 SLP167 T03110156
TAF KMCO 201739Z 2018/2124 26007KT P6SM FEW060 FEW250 FM210300 25005KT P6SM FEW150 SCT250 TEMPO 2109/2113 5SM BR SCT010 FM211500 24012G18KT P6SM SCT035 BKN250
Weather As Of 20 Apr 2024 16:02
Description Few clouds
Wind 13 km/h from West (280°)
Cloud Cover 20%
Precipitation Rain: none, Snow: none
Sunrise 06:54
Sunset 19:53
NOTAM 47 active NOTAM
Rotations During the last 90 days there were
97 flights from LGW
1 flights from LHR
101 flights to LGW
Lounges Plaza Premium Lounge MCO, C
American Airlines Admirals Club, Terminal B
Web Airport Website | Wikipedia
Codes IATA: MCO
ICAO: KMCO
Altitude 29 Meter / 96 Feet
Distance 7,004 KM / 4,352 Miles
from London.
Runways
RunwayLength (m)Surface
17L2743Asphalt
17R3048Concrete
18L3659Partial
18R3659Concrete
35L3048Concrete
35R2743Asphalt
36L3659Concrete
36R3659Partial
Radio
TypeDescriptionFrequency
A/DAPP/DEP119.4
ATISATIS121.25
CLDCLNC DEL134.7
GNDGND121.8
OPSAR OPS41.5
RDOST PETERSBURG RDO122.1
RDOST PETERSBURG RDO122.2
TWRTWR118.45
UNICUNICOM122.95
Live ATC



Support Speedbird Online

© 2017-2024 Speedbird Online